sensor_id;sensor_type;location;lat;lon;timestamp;pressure;altitude;pressure_sealevel;temperature;humidity
75196;BME280;63773;42.282;22.782;2023-04-06T08:08:22;96129.56;;;8.41;45.61
75196;BME280;63773;42.282;22.782;2023-04-06T08:10:48;96129.38;;;8.26;44.80
75196;BME280;63773;42.282;22.782;2023-04-06T08:13:14;96126.44;;;8.54;44.54
75196;BME280;63773;42.282;22.782;2023-04-06T08:15:40;96119.09;;;8.86;46.90
75196;BME280;63773;42.282;22.782;2023-04-06T08:18:05;96025.66;;;8.37;44.02
75196;BME280;63773;42.282;22.782;2023-04-06T08:20:31;96122.38;;;8.88;45.17
75196;BME280;63773;42.282;22.782;2023-04-06T08:22:56;96114.53;;;8.65;46.93
75196;BME280;63773;42.282;22.782;2023-04-06T08:25:22;96119.44;;;9.32;49.10
75196;BME280;63773;42.282;22.782;2023-04-06T08:27:49;96110.34;;;9.63;43.51
75196;BME280;63773;42.282;22.782;2023-04-06T08:30:14;96100.66;;;9.03;43.31
75196;BME280;63773;42.282;22.782;2023-04-06T08:32:41;96103.81;;;9.22;45.00
75196;BME280;63773;42.282;22.782;2023-04-06T08:35:07;96099.63;;;8.24;45.44
75196;BME280;63773;42.282;22.782;2023-04-06T08:37:32;95902.41;;;7.77;45.23
75196;BME280;63773;42.282;22.782;2023-04-06T08:39:58;96038.28;;;8.80;44.68
75196;BME280;63773;42.282;22.782;2023-04-06T08:42:25;96094.22;;;9.61;44.91
75196;BME280;63773;42.282;22.782;2023-04-06T08:44:51;96094.06;;;9.88;45.56
75196;BME280;63773;42.282;22.782;2023-04-06T08:47:18;96080.03;;;10.31;44.30
75196;BME280;63773;42.282;22.782;2023-04-06T08:49:44;96084.78;;;10.66;43.75
75196;BME280;63773;42.282;22.782;2023-04-06T08:52:10;96056.25;;;10.32;43.28
75196;BME280;63773;42.282;22.782;2023-04-06T08:54:37;96030.84;;;10.52;42.07
75196;BME280;63773;42.282;22.782;2023-04-06T08:57:02;96073.28;;;10.79;41.44
75196;BME280;63773;42.282;22.782;2023-04-06T08:59:28;96034.09;;;10.23;45.77
75196;BME280;63773;42.282;22.782;2023-04-06T09:01:55;96014.38;;;9.39;43.35
75196;BME280;63773;42.282;22.782;2023-04-06T09:04:21;96078.91;;;9.60;45.35
75196;BME280;63773;42.282;22.782;2023-04-06T09:06:47;96051.06;;;9.63;45.11
75196;BME280;63773;42.282;22.782;2023-04-06T09:09:12;96070.19;;;9.63;44.31
75196;BME280;63773;42.282;22.782;2023-04-06T09:11:48;96071.25;;;10.14;43.53
75196;BME280;63773;42.282;22.782;2023-04-06T09:14:14;96015.09;;;9.81;43.35
75196;BME280;63773;42.282;22.782;2023-04-06T09:16:42;95989.06;;;9.64;44.24
75196;BME280;63773;42.282;22.782;2023-04-06T09:19:08;96063.75;;;9.90;42.72
75196;BME280;63773;42.282;22.782;2023-04-06T09:21:34;96039.59;;;10.38;41.64
75196;BME280;63773;42.282;22.782;2023-04-06T09:24:02;96039.84;;;10.37;40.47
75196;BME280;63773;42.282;22.782;2023-04-06T09:26:28;95982.00;;;9.83;40.01
75196;BME280;63773;42.282;22.782;2023-04-06T09:28:55;96047.00;;;10.58;39.47
75196;BME280;63773;42.282;22.782;2023-04-06T09:31:23;96019.09;;;10.66;40.29
75196;BME280;63773;42.282;22.782;2023-04-06T09:33:50;96031.94;;;10.91;40.04
75196;BME280;63773;42.282;22.782;2023-04-06T09:36:15;95906.09;;;10.15;39.80
75196;BME280;63773;42.282;22.782;2023-04-06T09:38:58;95974.41;;;10.00;42.95
75196;BME280;63773;42.282;22.782;2023-04-06T09:41:29;96037.41;;;10.46;43.94
75196;BME280;63773;42.282;22.782;2023-04-06T09:44:06;96037.69;;;10.49;45.71
75196;BME280;63773;42.282;22.782;2023-04-06T09:46:36;96008.69;;;10.43;43.38
75196;BME280;63773;42.282;22.782;2023-04-06T09:49:03;96024.81;;;10.39;40.34
75196;BME280;63773;42.282;22.782;2023-04-06T09:51:37;96030.00;;;10.56;42.22
75196;BME280;63773;42.282;22.782;2023-04-06T09:54:03;96029.47;;;10.94;40.52
75196;BME280;63773;42.282;22.782;2023-04-06T09:59:09;96038.56;;;9.77;41.86
75196;BME280;63773;42.282;22.782;2023-04-06T10:01:38;96039.56;;;9.56;43.51
75196;BME280;63773;42.282;22.782;2023-04-06T10:04:37;96044.91;;;9.93;43.48
75196;BME280;63773;42.282;22.782;2023-04-06T10:07:06;96027.38;;;9.22;43.06
75196;BME280;63773;42.282;22.782;2023-04-06T10:09:35;96011.63;;;9.39;43.45
75196;BME280;63773;42.282;22.782;2023-04-06T10:12:06;96004.69;;;9.16;45.30
75196;BME280;63773;42.282;22.782;2023-04-06T10:14:34;96032.97;;;9.52;42.76
75196;BME280;63773;42.282;22.782;2023-04-06T10:17:04;96006.28;;;9.64;41.75
75196;BME280;63773;42.282;22.782;2023-04-06T10:22:45;96029.56;;;9.20;41.67
75196;BME280;63773;42.282;22.782;2023-04-06T10:28:20;96034.31;;;9.40;42.40
75196;BME280;63773;42.282;22.782;2023-04-06T10:30:46;95942.84;;;8.90;46.31
75196;BME280;63773;42.282;22.782;2023-04-06T10:33:19;96025.34;;;9.54;42.09
75196;BME280;63773;42.282;22.782;2023-04-06T10:35:46;96011.22;;;9.67;43.06
75196;BME280;63773;42.282;22.782;2023-04-06T10:38:12;95993.22;;;9.86;42.42
75196;BME280;63773;42.282;22.782;2023-04-06T10:40:40;95978.97;;;9.79;40.05
75196;BME280;63773;42.282;22.782;2023-04-06T10:43:12;96005.38;;;10.16;42.89
75196;BME280;63773;42.282;22.782;2023-04-06T10:45:39;96018.97;;;9.34;42.21
75196;BME280;63773;42.282;22.782;2023-04-06T10:48:23;95902.75;;;8.44;41.69
75196;BME280;63773;42.282;22.782;2023-04-06T10:50:52;96012.19;;;9.41;42.87
75196;BME280;63773;42.282;22.782;2023-04-06T10:53:26;96006.50;;;9.58;42.11
75196;BME280;63773;42.282;22.782;2023-04-06T10:55:54;96005.97;;;9.61;42.27
75196;BME280;63773;42.282;22.782;2023-04-06T10:58:24;96000.53;;;9.66;42.91
75196;BME280;63773;42.282;22.782;2023-04-06T11:00:50;95991.19;;;9.52;43.94
75196;BME280;63773;42.282;22.782;2023-04-06T11:03:16;96007.59;;;9.57;42.92
75196;BME280;63773;42.282;22.782;2023-04-06T11:05:47;95996.50;;;9.21;42.42
75196;BME280;63773;42.282;22.782;2023-04-06T11:08:30;96000.31;;;9.77;42.96
75196;BME280;63773;42.282;22.782;2023-04-06T11:11:10;96012.16;;;9.36;43.80
75196;BME280;63773;42.282;22.782;2023-04-06T11:13:45;95944.78;;;8.53;43.73
75196;BME280;63773;42.282;22.782;2023-04-06T11:16:18;96008.34;;;8.90;44.28
75196;BME280;63773;42.282;22.782;2023-04-06T11:21:15;95974.34;;;9.13;44.36
75196;BME280;63773;42.282;22.782;2023-04-06T11:23:41;96005.56;;;8.85;45.69
75196;BME280;63773;42.282;22.782;2023-04-06T11:26:14;96009.91;;;8.81;46.25
75196;BME280;63773;42.282;22.782;2023-04-06T11:28:44;95983.97;;;8.79;46.47
75196;BME280;63773;42.282;22.782;2023-04-06T11:31:10;95990.31;;;8.89;46.66
75196;BME280;63773;42.282;22.782;2023-04-06T11:33:37;95998.09;;;8.70;46.14
75196;BME280;63773;42.282;22.782;2023-04-06T11:36:04;95924.75;;;8.05;46.24
75196;BME280;63773;42.282;22.782;2023-04-06T11:38:30;96001.38;;;8.73;47.63
75196;BME280;63773;42.282;22.782;2023-04-06T11:40:56;95985.50;;;8.64;46.37
75196;BME280;63773;42.282;22.782;2023-04-06T11:43:29;96007.06;;;8.66;46.26
75196;BME280;63773;42.282;22.782;2023-04-06T11:46:03;95998.28;;;9.01;46.00
75196;BME280;63773;42.282;22.782;2023-04-06T11:48:29;95995.53;;;8.54;44.93
75196;BME280;63773;42.282;22.782;2023-04-06T11:50:58;96000.25;;;9.05;46.72
75196;BME280;63773;42.282;22.782;2023-04-06T11:53:29;96007.44;;;8.80;44.06
75196;BME280;63773;42.282;22.782;2023-04-06T11:55:55;96004.91;;;9.10;46.58
75196;BME280;63773;42.282;22.782;2023-04-06T11:58:21;95993.81;;;8.80;45.87
75196;BME280;63773;42.282;22.782;2023-04-06T12:00:47;95938.38;;;8.74;43.24
75196;BME280;63773;42.282;22.782;2023-04-06T12:03:12;95999.97;;;9.54;43.77
75196;BME280;63773;42.282;22.782;2023-04-06T12:05:38;95969.22;;;9.26;43.71
75196;BME280;63773;42.282;22.782;2023-04-06T12:08:04;95994.72;;;9.42;42.91
75196;BME280;63773;42.282;22.782;2023-04-06T12:10:30;95983.06;;;9.05;43.44
75196;BME280;63773;42.282;22.782;2023-04-06T12:12:55;95993.63;;;8.91;45.19
75196;BME280;63773;42.282;22.782;2023-04-06T12:15:21;95984.78;;;9.26;43.84
75196;BME280;63773;42.282;22.782;2023-04-06T12:17:47;95948.50;;;9.25;44.01
75196;BME280;63773;42.282;22.782;2023-04-06T12:20:12;95987.22;;;9.95;43.19
75196;BME280;63773;42.282;22.782;2023-04-06T12:22:39;95993.91;;;9.47;42.65
75196;BME280;63773;42.282;22.782;2023-04-06T12:25:05;95987.13;;;9.59;43.17
75196;BME280;63773;42.282;22.782;2023-04-06T12:27:32;95983.38;;;9.80;43.81
75196;BME280;63773;42.282;22.782;2023-04-06T12:29:58;95902.38;;;9.34;45.67
75196;BME280;63773;42.282;22.782;2023-04-06T12:32:23;95944.84;;;9.10;42.83
75196;BME280;63773;42.282;22.782;2023-04-06T12:34:50;95990.13;;;9.58;43.46
75196;BME280;63773;42.282;22.782;2023-04-06T12:37:16;95985.03;;;9.92;42.19
75196;BME280;63773;42.282;22.782;2023-04-06T12:39:41;95937.19;;;9.79;43.78
75196;BME280;63773;42.282;22.782;2023-04-06T12:42:09;95951.41;;;9.81;41.77
75196;BME280;63773;42.282;22.782;2023-04-06T12:44:35;95960.50;;;10.17;40.73
75196;BME280;63773;42.282;22.782;2023-04-06T12:47:00;95971.06;;;9.88;41.05
75196;BME280;63773;42.282;22.782;2023-04-06T12:49:26;95952.88;;;10.34;41.58
75196;BME280;63773;42.282;22.782;2023-04-06T12:51:51;95935.63;;;10.54;42.67
75196;BME280;63773;42.282;22.782;2023-04-06T12:54:17;95951.50;;;10.67;42.21
75196;BME280;63773;42.282;22.782;2023-04-06T12:56:42;95944.13;;;10.57;41.13
75196;BME280;63773;42.282;22.782;2023-04-06T12:59:09;95963.81;;;10.49;40.18
75196;BME280;63773;42.282;22.782;2023-04-06T13:01:34;95962.44;;;10.77;40.86
75196;BME280;63773;42.282;22.782;2023-04-06T13:04:00;95956.69;;;10.63;42.39
75196;BME280;63773;42.282;22.782;2023-04-06T13:06:26;95955.03;;;10.82;42.08
75196;BME280;63773;42.282;22.782;2023-04-06T13:08:55;95888.03;;;10.34;41.84
75196;BME280;63773;42.282;22.782;2023-04-06T13:11:21;95946.72;;;11.18;41.42
75196;BME280;63773;42.282;22.782;2023-04-06T13:13:49;95943.69;;;11.24;42.49
75196;BME280;63773;42.282;22.782;2023-04-06T13:16:14;95937.66;;;11.27;41.29
75196;BME280;63773;42.282;22.782;2023-04-06T13:18:40;95922.56;;;11.40;40.80
75196;BME280;63773;42.282;22.782;2023-04-06T13:21:06;95940.59;;;11.51;39.69
75196;BME280;63773;42.282;22.782;2023-04-06T13:23:32;95909.47;;;11.22;41.73
75196;BME280;63773;42.282;22.782;2023-04-06T13:26:05;95933.66;;;10.94;40.71
75196;BME280;63773;42.282;22.782;2023-04-06T13:28:33;95930.41;;;10.67;40.27
75196;BME280;63773;42.282;22.782;2023-04-06T13:30:59;95920.81;;;9.99;41.75
75196;BME280;63773;42.282;22.782;2023-04-06T13:33:26;95934.53;;;10.19;39.80
75196;BME280;63773;42.282;22.782;2023-04-06T13:35:52;95934.53;;;10.55;43.38
75196;BME280;63773;42.282;22.782;2023-04-06T13:38:17;95907.72;;;10.52;42.26
75196;BME280;63773;42.282;22.782;2023-04-06T13:40:43;95930.69;;;10.71;42.07
75196;BME280;63773;42.282;22.782;2023-04-06T13:43:09;95889.28;;;10.92;39.63
75196;BME280;63773;42.282;22.782;2023-04-06T13:45:35;95926.13;;;11.35;39.41
75196;BME280;63773;42.282;22.782;2023-04-06T13:48:00;95902.88;;;11.28;38.56
75196;BME280;63773;42.282;22.782;2023-04-06T13:50:27;95934.13;;;11.22;40.31
75196;BME280;63773;42.282;22.782;2023-04-06T13:52:53;95930.34;;;10.92;39.08
75196;BME280;63773;42.282;22.782;2023-04-06T13:55:19;95932.06;;;10.68;40.01
75196;BME280;63773;42.282;22.782;2023-04-06T13:57:44;95905.03;;;10.21;41.02
75196;BME280;63773;42.282;22.782;2023-04-06T14:00:10;95927.97;;;10.46;40.90
75196;BME280;63773;42.282;22.782;2023-04-06T14:02:39;95915.66;;;10.28;40.52
75196;BME280;63773;42.282;22.782;2023-04-06T14:05:05;95892.84;;;9.57;42.83
75196;BME280;63773;42.282;22.782;2023-04-06T14:07:31;95886.31;;;9.48;42.38
75196;BME280;63773;42.282;22.782;2023-04-06T14:09:56;95936.53;;;9.47;42.55
75196;BME280;63773;42.282;22.782;2023-04-06T14:12:21;95937.97;;;9.64;43.45
75196;BME280;63773;42.282;22.782;2023-04-06T14:14:47;95934.66;;;9.57;42.18
75196;BME280;63773;42.282;22.782;2023-04-06T14:17:12;95944.09;;;9.19;43.18
75196;BME280;63773;42.282;22.782;2023-04-06T14:19:38;95938.97;;;9.38;43.11
75196;BME280;63773;42.282;22.782;2023-04-06T14:22:04;95936.78;;;9.40;42.27
75196;BME280;63773;42.282;22.782;2023-04-06T14:24:30;95939.25;;;9.42;43.27
75196;BME280;63773;42.282;22.782;2023-04-06T14:26:56;95841.97;;;9.10;42.86
75196;BME280;63773;42.282;22.782;2023-04-06T14:29:22;95943.34;;;9.39;44.43
75196;BME280;63773;42.282;22.782;2023-04-06T14:31:48;95793.84;;;8.27;42.71
75196;BME280;63773;42.282;22.782;2023-04-06T14:34:14;95944.31;;;9.13;43.71
75196;BME280;63773;42.282;22.782;2023-04-06T14:36:43;95945.38;;;9.02;43.30
75196;BME280;63773;42.282;22.782;2023-04-06T14:39:08;95888.31;;;8.17;43.05
75196;BME280;63773;42.282;22.782;2023-04-06T14:41:35;95912.19;;;8.73;44.13
75196;BME280;63773;42.282;22.782;2023-04-06T14:44:01;95937.25;;;8.70;43.92
75196;BME280;63773;42.282;22.782;2023-04-06T14:46:27;95950.19;;;8.85;44.33
75196;BME280;63773;42.282;22.782;2023-04-06T14:48:56;95950.81;;;9.02;43.92
75196;BME280;63773;42.282;22.782;2023-04-06T14:51:26;95926.69;;;8.84;44.29
75196;BME280;63773;42.282;22.782;2023-04-06T14:53:54;95888.50;;;8.37;43.63
75196;BME280;63773;42.282;22.782;2023-04-06T14:56:21;95903.63;;;8.54;44.41
75196;BME280;63773;42.282;22.782;2023-04-06T14:58:47;95961.72;;;8.97;42.90
75196;BME280;63773;42.282;22.782;2023-04-06T15:01:12;95958.16;;;8.96;43.23
75196;BME280;63773;42.282;22.782;2023-04-06T15:03:37;95945.22;;;8.77;43.75
75196;BME280;63773;42.282;22.782;2023-04-06T15:06:03;95936.81;;;8.83;42.99
75196;BME280;63773;42.282;22.782;2023-04-06T15:08:28;95938.41;;;8.79;44.21
75196;BME280;63773;42.282;22.782;2023-04-06T15:10:58;95950.88;;;8.65;44.38
75196;BME280;63773;42.282;22.782;2023-04-06T15:13:23;95950.59;;;8.66;44.11
75196;BME280;63773;42.282;22.782;2023-04-06T15:15:50;95956.53;;;8.58;45.54
75196;BME280;63773;42.282;22.782;2023-04-06T15:18:16;95935.81;;;8.57;44.71
75196;BME280;63773;42.282;22.782;2023-04-06T15:20:41;95958.91;;;8.87;46.54
75196;BME280;63773;42.282;22.782;2023-04-06T15:23:07;95960.84;;;8.86;45.69
75196;BME280;63773;42.282;22.782;2023-04-06T15:25:32;95939.16;;;8.33;44.40
75196;BME280;63773;42.282;22.782;2023-04-06T15:27:58;95960.81;;;8.44;45.80
75196;BME280;63773;42.282;22.782;2023-04-06T15:30:23;95960.78;;;8.39;44.55
75196;BME280;63773;42.282;22.782;2023-04-06T15:32:59;95953.63;;;8.70;45.01
75196;BME280;63773;42.282;22.782;2023-04-06T15:35:29;95897.25;;;7.75;45.49
75196;BME280;63773;42.282;22.782;2023-04-06T15:37:55;95965.72;;;8.47;44.85
75196;BME280;63773;42.282;22.782;2023-04-06T15:40:21;95970.09;;;8.43;44.59
75196;BME280;63773;42.282;22.782;2023-04-06T15:42:47;95965.13;;;8.08;45.46
75196;BME280;63773;42.282;22.782;2023-04-06T15:45:12;95922.69;;;7.59;45.39
75196;BME280;63773;42.282;22.782;2023-04-06T15:47:40;95939.88;;;7.91;47.27
75196;BME280;63773;42.282;22.782;2023-04-06T15:50:25;95979.63;;;7.87;45.28
75196;BME280;63773;42.282;22.782;2023-04-06T15:52:52;95975.91;;;7.72;46.42
75196;BME280;63773;42.282;22.782;2023-04-06T15:55:17;95848.59;;;7.04;46.16
75196;BME280;63773;42.282;22.782;2023-04-06T15:57:43;95986.28;;;7.75;46.24
75196;BME280;63773;42.282;22.782;2023-04-06T16:00:08;95981.56;;;7.65;47.21
75196;BME280;63773;42.282;22.782;2023-04-06T16:02:34;95956.72;;;7.35;47.05
75196;BME280;63773;42.282;22.782;2023-04-06T16:05:00;95993.31;;;7.44;47.15
75196;BME280;63773;42.282;22.782;2023-04-06T16:07:27;96001.38;;;7.61;46.25
75196;BME280;63773;42.282;22.782;2023-04-06T16:09:53;95995.19;;;7.43;47.43
75196;BME280;63773;42.282;22.782;2023-04-06T16:12:19;95969.81;;;7.16;46.90
75196;BME280;63773;42.282;22.782;2023-04-06T16:14:45;95998.09;;;7.37;48.19
75196;BME280;63773;42.282;22.782;2023-04-06T16:17:11;96004.63;;;7.36;47.81
75196;BME280;63773;42.282;22.782;2023-04-06T16:19:37;95998.09;;;7.37;47.38
75196;BME280;63773;42.282;22.782;2023-04-06T16:22:03;96006.13;;;7.48;47.19
75196;BME280;63773;42.282;22.782;2023-04-06T16:24:28;96009.50;;;7.55;47.90
75196;BME280;63773;42.282;22.782;2023-04-06T16:26:54;95991.97;;;7.46;48.51
75196;BME280;63773;42.282;22.782;2023-04-06T16:29:20;96016.00;;;7.54;48.51
75196;BME280;63773;42.282;22.782;2023-04-06T16:31:46;96016.97;;;7.43;47.00
75196;BME280;63773;42.282;22.782;2023-04-06T16:34:12;96024.06;;;7.44;46.58
75196;BME280;63773;42.282;22.782;2023-04-06T16:36:38;96021.09;;;7.24;46.72
75196;BME280;63773;42.282;22.782;2023-04-06T16:39:08;96022.53;;;7.32;47.14
75196;BME280;63773;42.282;22.782;2023-04-06T16:41:34;96023.88;;;7.29;46.49
75196;BME280;63773;42.282;22.782;2023-04-06T16:44:00;96003.25;;;6.95;47.88
75196;BME280;63773;42.282;22.782;2023-04-06T16:46:30;96009.34;;;7.02;49.76
75196;BME280;63773;42.282;22.782;2023-04-06T16:48:57;96022.47;;;7.27;48.05
75196;BME280;63773;42.282;22.782;2023-04-06T16:51:22;96002.44;;;6.94;47.73
75196;BME280;63773;42.282;22.782;2023-04-06T16:53:48;96019.25;;;7.08;48.50
75196;BME280;63773;42.282;22.782;2023-04-06T16:56:13;96019.09;;;6.98;47.84
75196;BME280;63773;42.282;22.782;2023-04-06T16:58:39;96035.56;;;6.91;47.14
75196;BME280;63773;42.282;22.782;2023-04-06T17:01:04;96036.81;;;6.84;45.97
75196;BME280;63773;42.282;22.782;2023-04-06T17:03:32;96046.25;;;6.76;46.18
75196;BME280;63773;42.282;22.782;2023-04-06T17:05:58;96034.63;;;6.64;47.13
75196;BME280;63773;42.282;22.782;2023-04-06T17:08:24;96046.81;;;6.78;47.04
75196;BME280;63773;42.282;22.782;2023-04-06T17:10:49;96056.19;;;6.87;46.25
75196;BME280;63773;42.282;22.782;2023-04-06T17:13:15;96050.94;;;6.64;46.57
75196;BME280;63773;42.282;22.782;2023-04-06T17:15:40;96058.84;;;6.66;46.72
75196;BME280;63773;42.282;22.782;2023-04-06T17:18:07;96014.34;;;6.38;47.24
75196;BME280;63773;42.282;22.782;2023-04-06T17:20:33;96073.84;;;6.68;47.18
75196;BME280;63773;42.282;22.782;2023-04-06T17:23:00;96079.03;;;6.53;47.48
75196;BME280;63773;42.282;22.782;2023-04-06T17:25:26;96086.78;;;6.61;47.99
75196;BME280;63773;42.282;22.782;2023-04-06T17:27:52;96088.34;;;6.74;47.80
75196;BME280;63773;42.282;22.782;2023-04-06T17:30:17;96077.06;;;6.49;48.26
75196;BME280;63773;42.282;22.782;2023-04-06T17:32:43;96052.41;;;6.22;47.36
75196;BME280;63773;42.282;22.782;2023-04-06T17:35:09;96056.56;;;6.13;47.69
75196;BME280;63773;42.282;22.782;2023-04-06T17:37:36;96105.66;;;6.68;47.55
75196;BME280;63773;42.282;22.782;2023-04-06T17:40:05;96110.88;;;6.41;48.84
75196;BME280;63773;42.282;22.782;2023-04-06T17:42:31;96115.91;;;6.49;47.77
75196;BME280;63773;42.282;22.782;2023-04-06T17:44:57;96109.91;;;6.47;48.22
75196;BME280;63773;42.282;22.782;2023-04-06T17:47:23;96112.94;;;6.34;48.05
75196;BME280;63773;42.282;22.782;2023-04-06T17:49:54;96025.97;;;5.61;47.95
75196;BME280;63773;42.282;22.782;2023-04-06T17:52:20;96124.25;;;6.14;47.31
75196;BME280;63773;42.282;22.782;2023-04-06T17:54:45;96121.00;;;6.29;47.22
75196;BME280;63773;42.282;22.782;2023-04-06T17:57:11;96126.63;;;6.39;47.98
75196;BME280;63773;42.282;22.782;2023-04-06T17:59:36;96131.31;;;6.15;47.98
75196;BME280;63773;42.282;22.782;2023-04-06T18:02:02;96137.09;;;6.47;47.26
75196;BME280;63773;42.282;22.782;2023-04-06T18:04:28;96133.69;;;6.23;47.55
75196;BME280;63773;42.282;22.782;2023-04-06T18:06:54;96157.41;;;6.28;48.09
75196;BME280;63773;42.282;22.782;2023-04-06T18:09:19;96153.72;;;6.34;48.81
75196;BME280;63773;42.282;22.782;2023-04-06T18:11:44;96160.53;;;6.36;47.95
75196;BME280;63773;42.282;22.782;2023-04-06T18:14:10;96161.66;;;6.24;48.11
75196;BME280;63773;42.282;22.782;2023-04-06T18:16:37;96172.44;;;6.47;47.97
75196;BME280;63773;42.282;22.782;2023-04-06T18:19:04;96169.66;;;6.59;48.06
75196;BME280;63773;42.282;22.782;2023-04-06T18:21:30;96143.97;;;6.10;48.20
75196;BME280;63773;42.282;22.782;2023-04-06T18:23:59;96183.53;;;6.17;47.28
75196;BME280;63773;42.282;22.782;2023-04-06T18:26:24;96176.03;;;5.96;48.21
75196;BME280;63773;42.282;22.782;2023-04-06T18:28:50;96188.59;;;5.86;48.17
75196;BME280;63773;42.282;22.782;2023-04-06T18:31:15;96152.00;;;5.65;47.75
75196;BME280;63773;42.282;22.782;2023-04-06T18:33:41;96198.03;;;5.95;48.16
75196;BME280;63773;42.282;22.782;2023-04-06T18:36:08;96199.53;;;5.79;47.93
75196;BME280;63773;42.282;22.782;2023-04-06T18:38:37;96198.75;;;5.67;47.81
75196;BME280;63773;42.282;22.782;2023-04-06T18:41:03;96202.78;;;5.64;48.57
75196;BME280;63773;42.282;22.782;2023-04-06T18:43:29;96183.63;;;5.59;48.20
75196;BME280;63773;42.282;22.782;2023-04-06T18:45:54;96206.53;;;5.75;47.64
75196;BME280;63773;42.282;22.782;2023-04-06T18:48:20;96172.47;;;5.44;47.43
75196;BME280;63773;42.282;22.782;2023-04-06T18:50:56;96212.56;;;5.89;47.45
75196;BME280;63773;42.282;22.782;2023-04-06T18:53:26;96214.91;;;5.97;48.23
75196;BME280;63773;42.282;22.782;2023-04-06T18:55:51;96197.06;;;5.77;47.82
75196;BME280;63773;42.282;22.782;2023-04-06T18:58:17;96222.81;;;5.98;48.15
75196;BME280;63773;42.282;22.782;2023-04-06T19:00:43;96209.25;;;5.87;48.34
75196;BME280;63773;42.282;22.782;2023-04-06T19:03:09;96226.22;;;5.70;48.29
75196;BME280;63773;42.282;22.782;2023-04-06T19:05:34;96087.06;;;5.00;48.07
75196;BME280;63773;42.282;22.782;2023-04-06T19:08:00;96227.75;;;6.01;47.73
75196;BME280;63773;42.282;22.782;2023-04-06T19:10:25;96224.81;;;5.79;48.09
75196;BME280;63773;42.282;22.782;2023-04-06T19:12:51;96224.94;;;5.96;48.84
75196;BME280;63773;42.282;22.782;2023-04-06T19:15:16;96175.63;;;5.64;49.01
75196;BME280;63773;42.282;22.782;2023-04-06T19:17:42;96178.34;;;5.53;49.63
75196;BME280;63773;42.282;22.782;2023-04-06T19:20:08;96233.06;;;5.84;49.64
75196;BME280;63773;42.282;22.782;2023-04-06T19:22:35;96218.22;;;5.64;50.03
75196;BME280;63773;42.282;22.782;2023-04-06T19:25:01;96160.56;;;5.10;49.80
75196;BME280;63773;42.282;22.782;2023-04-06T19:27:26;96192.16;;;5.40;49.37
75196;BME280;63773;42.282;22.782;2023-04-06T19:29:52;96220.59;;;5.60;50.07
75196;BME280;63773;42.282;22.782;2023-04-06T19:32:17;96126.34;;;4.98;49.34
75196;BME280;63773;42.282;22.782;2023-04-06T19:34:43;96240.31;;;5.56;49.61
75196;BME280;63773;42.282;22.782;2023-04-06T19:37:08;95693.09;;;2.36;49.35
75196;BME280;63773;42.282;22.782;2023-04-06T19:39:34;96203.84;;;5.40;49.26
75196;BME280;63773;42.282;22.782;2023-04-06T19:42:01;96223.28;;;5.60;49.54
75196;BME280;63773;42.282;22.782;2023-04-06T19:44:27;96144.59;;;5.14;49.73
75196;BME280;63773;42.282;22.782;2023-04-06T19:46:52;96240.06;;;5.92;50.37
75196;BME280;63773;42.282;22.782;2023-04-06T19:49:18;96227.41;;;5.63;49.40
75196;BME280;63773;42.282;22.782;2023-04-06T19:51:43;96187.44;;;5.12;49.42
75196;BME280;63773;42.282;22.782;2023-04-06T19:54:09;96248.56;;;5.49;50.47
75196;BME280;63773;42.282;22.782;2023-04-06T19:56:34;96216.72;;;5.33;50.51
75196;BME280;63773;42.282;22.782;2023-04-06T19:59:00;96198.38;;;5.17;50.04
75196;BME280;63773;42.282;22.782;2023-04-06T20:01:26;96150.06;;;4.49;50.36
75196;BME280;63773;42.282;22.782;2023-04-06T20:03:52;96268.25;;;5.56;50.01
75196;BME280;63773;42.282;22.782;2023-04-06T20:06:17;96259.88;;;5.46;50.17
75196;BME280;63773;42.282;22.782;2023-04-06T20:08:43;96265.91;;;5.60;49.87
75196;BME280;63773;42.282;22.782;2023-04-06T20:11:09;96264.94;;;5.43;50.17
75196;BME280;63773;42.282;22.782;2023-04-06T20:13:35;95681.25;;;1.78;48.70
75196;BME280;63773;42.282;22.782;2023-04-06T20:16:02;96260.00;;;5.51;48.09
75196;BME280;63773;42.282;22.782;2023-04-06T20:18:27;96264.47;;;5.57;48.03
75196;BME280;63773;42.282;22.782;2023-04-06T20:20:53;96241.72;;;5.47;48.66
75196;BME280;63773;42.282;22.782;2023-04-06T20:23:19;96237.13;;;5.47;48.59
75196;BME280;63773;42.282;22.782;2023-04-06T20:25:45;96263.06;;;5.78;48.43
75196;BME280;63773;42.282;22.782;2023-04-06T20:28:10;96262.00;;;5.91;49.00
75196;BME280;63773;42.282;22.782;2023-04-06T20:30:36;96257.88;;;5.76;48.33
75196;BME280;63773;42.282;22.782;2023-04-06T20:33:02;96249.50;;;5.55;49.31
75196;BME280;63773;42.282;22.782;2023-04-06T20:35:27;96265.06;;;5.59;48.47
75196;BME280;63773;42.282;22.782;2023-04-06T20:37:53;96270.50;;;5.71;47.07
75196;BME280;63773;42.282;22.782;2023-04-06T20:40:19;96280.31;;;5.60;46.09
75196;BME280;63773;42.282;22.782;2023-04-06T20:42:45;96285.63;;;5.55;47.42
75196;BME280;63773;42.282;22.782;2023-04-06T20:45:11;96137.38;;;4.61;47.78
75196;BME280;63773;42.282;22.782;2023-04-06T20:47:37;96230.72;;;5.18;47.86
75196;BME280;63773;42.282;22.782;2023-04-06T20:50:03;96283.47;;;5.46;47.69
75196;BME280;63773;42.282;22.782;2023-04-06T20:52:30;96286.28;;;5.39;48.15
75196;BME280;63773;42.282;22.782;2023-04-06T20:54:55;96171.81;;;4.73;48.28
75196;BME280;63773;42.282;22.782;2023-04-06T20:57:23;96253.38;;;5.24;48.26
75196;BME280;63773;42.282;22.782;2023-04-06T20:59:48;96285.00;;;5.53;47.20
75196;BME280;63773;42.282;22.782;2023-04-06T21:02:14;96286.28;;;5.39;46.99
75196;BME280;63773;42.282;22.782;2023-04-06T21:04:41;96239.19;;;4.99;48.19
75196;BME280;63773;42.282;22.782;2023-04-06T21:07:06;96250.53;;;5.19;47.95
75196;BME280;63773;42.282;22.782;2023-04-06T21:09:36;96292.88;;;5.32;48.51
75196;BME280;63773;42.282;22.782;2023-04-06T21:12:03;96261.84;;;5.04;47.39
75196;BME280;63773;42.282;22.782;2023-04-06T21:14:30;96092.25;;;4.02;48.15